Time;durP1;ratioP1;P1;durP2;ratioP2;P2;SDS_P1;SDS_P2;PMS_P1;PMS_P2;Temp;Humidity;BMP_temperature;BMP_pressure;BME280_temperature;BME280_humidity;BME280_pressure;Samples;Min_cycle;Max_cycle;Signal;HPM_P1;HPM_P2
2023/05/20 03:28:29;;;;;;;0.30;0.30;;;;;;;11.67;100.00;100481.13;4985138;23;20326;-84
2023/05/20 03:30:56;;;;;;;0.10;0.10;;;;;;;11.68;100.00;100496.13;4976131;28;20235;-83
2023/05/20 03:33:25;;;;;;;0.20;0.20;;;;;;;11.67;100.00;100505.84;4975671;28;20327;-84
2023/05/20 03:35:52;;;;;;;0.20;0.20;;;;;;;11.69;100.00;100508.50;4974294;28;20240;-83
2023/05/20 03:38:20;;;;;;;0.10;0.10;;;;;;;11.69;100.00;100521.75;4992938;28;20244;-83
2023/05/20 03:40:47;;;;;;;0.20;0.20;;;;;;;11.71;100.00;100528.84;4998387;28;20236;-83
2023/05/20 03:43:15;;;;;;;0.10;0.10;;;;;;;11.70;100.00;100540.34;5001710;28;20235;-83
2023/05/20 03:45:42;;;;;;;0.10;0.10;;;;;;;11.73;100.00;100540.34;4991137;28;20224;-83
2023/05/20 03:48:54;;;;;;;0.10;0.10;;;11.50;99.90;;;11.80;100.00;100544.84;4997233;28;20235;-82
2023/05/20 03:51:22;;;;;;;0.10;0.10;;;;;;;11.80;100.00;100541.31;4987203;28;20238;-86
2023/05/20 03:53:49;;;;;;;0.10;0.10;;;;;;;11.81;100.00;100537.78;4991823;28;20237;-85
2023/05/20 03:56:17;;;;;;;0.30;0.30;;;;;;;11.86;100.00;100544.00;5007542;28;20235;-85
2023/05/20 03:58:44;;;;;;;0.10;0.10;;;;;;;11.89;100.00;100540.47;4992591;28;20236;-83
2023/05/20 04:01:13;;;;;;;0.20;0.20;;;;;;;11.88;100.00;100549.28;4977817;28;20244;-84
2023/05/20 04:03:43;;;;;;;0.20;0.20;;;11.60;99.90;;;11.90;100.00;100544.88;4991258;28;20243;-86
2023/05/20 04:06:12;;;;;;;0.20;0.20;;;;;;;11.93;100.00;100545.78;5000531;28;20299;-82
2023/05/20 04:08:39;;;;;;;0.10;0.10;;;;;;;12.00;100.00;100552.00;4981594;28;20227;-83
2023/05/20 04:11:07;;;;;;;0.15;0.15;;;;;;;12.01;100.00;100557.31;4998331;28;20235;-84
2023/05/20 04:13:35;;;;;;;0.10;0.10;;;;;;;12.04;100.00;100559.97;4998183;28;20236;-83
2023/05/20 04:16:04;;;;;;;0.10;0.10;;;;;;;12.06;100.00;100562.63;4992799;28;20585;-83
2023/05/20 04:18:31;;;;;;;0.20;0.20;;;;;;;12.13;100.00;100569.75;4969240;28;20248;-85
2023/05/20 04:21:00;;;;;;;0.25;0.17;;;;;;;12.15;100.00;100582.13;4986196;28;20248;-86
2023/05/20 04:23:28;;;;;;;0.10;0.10;;;;;;;12.15;100.00;100575.94;4993354;28;20314;-86
2023/05/20 04:26:01;;;;;;;0.10;0.10;;;;;;;12.18;100.00;100578.59;4996302;28;20311;-83
2023/05/20 04:28:30;;;;;;;0.20;0.20;;;;;;;12.19;100.00;100583.03;4993541;28;20315;-84
2023/05/20 04:30:59;;;;;;;0.10;0.10;;;11.90;99.90;;;12.24;100.00;100581.28;4988080;28;20244;-84
2023/05/20 04:33:27;;;;;;;0.20;0.20;;;;;;;12.25;100.00;100591.00;4995297;28;20239;-84
2023/05/20 04:35:57;;;;;;;0.10;0.10;;;;;;;12.30;100.00;100588.38;5006219;28;20232;-85
2023/05/20 04:38:28;;;;;;;0.10;0.10;;;12.00;99.90;;;12.29;100.00;100598.09;5001365;28;20237;-84
2023/05/20 04:41:00;;;;;;;0.20;0.20;;;;;;;12.30;100.00;100599.88;5005034;28;20278;-84
2023/05/20 04:43:32;;;;;;;0.20;0.20;;;12.10;99.90;;;12.33;100.00;100609.63;5004492;28;20240;-84
2023/05/20 04:46:04;;;;;;;0.20;0.20;;;;;;;12.38;100.00;100606.09;4994010;28;20236;-83
2023/05/20 04:48:32;;;;;;;0.98;0.43;;;;;;;12.39;100.00;100607.00;4990715;28;20311;-84
2023/05/20 04:51:00;;;;;;;0.20;0.20;;;;;;;12.43;100.00;100607.00;4992684;28;20237;-84
2023/05/20 04:53:29;;;;;;;0.10;0.10;;;;;;;12.49;100.00;100601.72;4997315;28;20235;-83
2023/05/20 04:55:59;;;;;;;0.17;0.17;;;12.20;99.90;;;12.49;100.00;100603.50;4999132;28;20251;-86
2023/05/20 04:58:28;;;;;;;0.13;0.13;;;;;;;12.57;100.00;100608.81;4995684;28;20243;-84
2023/05/20 05:00:56;;;;;;;0.10;0.10;;;13.40;99.90;;;12.62;100.00;100612.38;5004424;28;20240;-83
2023/05/20 05:03:26;;;;;;;0.10;0.10;;;12.30;99.90;;;12.66;100.00;100608.84;4995421;28;20315;-84
2023/05/20 05:05:57;;;;;;;0.10;0.10;;;12.40;99.90;;;12.71;100.00;100620.38;4995475;28;20239;-85
2023/05/20 05:08:25;;;;;;;0.20;0.20;;;;;;;12.75;100.00;100607.13;4996864;28;20262;-84
2023/05/20 05:10:53;;;;;;;0.20;0.20;;;;;;;12.74;100.00;100617.72;5003562;28;20242;-84
2023/05/20 05:13:20;;;;;;;0.10;0.10;;;;;;;12.78;100.00;100608.91;5001968;28;20241;-86
2023/05/20 05:15:48;;;;;;;0.17;0.17;;;;;;;12.82;100.00;100614.22;4997621;28;20583;-84
2023/05/20 05:18:18;;;;;;;0.28;0.28;;;;;;;12.86;100.00;100607.16;5000345;28;20293;-84
2023/05/20 05:20:45;;;;;;;0.20;0.20;;;;;;;12.90;100.00;100605.38;5006247;28;20235;-83
2023/05/20 05:23:13;;;;;;;0.20;0.20;;;;;;;12.92;100.00;100600.97;4998046;28;20244;-83
2023/05/20 05:25:40;;;;;;;0.10;0.10;;;;;;;12.95;100.00;100591.25;5007296;28;20244;-83
2023/05/20 05:28:08;;;;;;;0.10;0.10;;;;;;;12.97;100.00;100601.84;4996828;28;20250;-82
2023/05/20 05:30:36;;;;;;;0.20;0.20;;;;;;;12.96;100.00;100589.47;5001726;28;20239;-82
2023/05/20 05:33:03;;;;;;;0.20;0.20;;;;;;;13.00;100.00;100592.16;5007693;28;20707;-84
2023/05/20 05:35:31;;;;;;;0.20;0.20;;;12.70;99.90;;;13.04;100.00;100585.09;5005330;28;20236;-86
2023/05/20 05:37:59;;;;;;;0.10;0.10;;;;;;;13.08;100.00;100584.22;4992154;28;20240;-84
2023/05/20 05:40:27;;;;;;;0.10;0.10;;;;;;;13.10;100.00;100593.94;4993626;28;20235;-85
2023/05/20 05:42:54;;;;;;;0.32;0.32;;;;;;;13.13;100.00;100590.41;4974549;28;20244;-85
2023/05/20 05:45:22;;;;;;;0.10;0.10;;;;;;;13.24;100.00;100601.06;4993503;28;20225;-86
2023/05/20 05:47:50;;;;;;;0.10;0.10;;;;;;;13.32;100.00;100601.97;4995260;28;20224;-85
2023/05/20 05:50:17;;;;;;;0.10;0.10;;;;;;;13.31;100.00;100592.22;4993300;28;20238;-86
2023/05/20 05:52:45;;;;;;;0.10;0.10;;;;;;;13.39;100.00;100580.72;4995240;28;20224;-86
2023/05/20 05:55:12;;;;;;;0.10;0.10;;;;;;;13.40;100.00;100586.91;4988290;28;20232;-84
2023/05/20 05:57:40;;;;;;;0.10;0.10;;;;;;;13.45;100.00;100591.34;4989639;28;20247;-85
2023/05/20 06:00:08;;;;;;;0.20;0.20;;;13.20;99.90;;;13.54;100.00;100590.44;4992215;28;20260;-86
2023/05/20 06:02:35;;;;;;;0.10;0.10;;;;;;;13.55;100.00;100599.31;4989635;28;20243;-84
2023/05/20 06:05:04;;;;;;;0.10;0.10;;;;;;;13.54;100.00;100590.44;4990351;28;20237;-85
2023/05/20 06:07:31;;;;;;;0.20;0.20;;;;;;;13.63;100.00;100587.78;4986628;28;20281;-86
2023/05/20 06:09:59;;;;;;;0.10;0.10;;;;;;;13.67;100.00;100591.31;4989539;28;20240;-86
2023/05/20 06:12:26;;;;;;;0.30;0.30;;;;;;;13.78;100.00;100597.53;4995782;28;20599;-86
2023/05/20 06:14:54;;;;;;;0.10;0.10;;;;;;;13.78;100.00;100593.09;4998209;28;20240;-85
2023/05/20 06:17:21;;;;;;;0.10;0.10;;;;;;;13.78;100.00;100585.13;4970345;28;20232;-85
2023/05/20 06:19:49;;;;;;;0.10;0.10;;;;;;;13.90;100.00;100573.56;4986604;28;20233;-86
2023/05/20 06:22:16;;;;;;;0.20;0.20;;;;;;;14.06;100.00;100587.72;4992101;28;20232;-83
2023/05/20 06:24:44;;;;;;;0.10;0.10;;;;;;;14.05;100.00;100572.63;4999294;28;20238;-83
2023/05/20 06:27:11;;;;;;;0.10;0.10;;;;;;;14.22;100.00;100589.44;5004527;28;20241;-83
2023/05/20 06:29:39;;;;;;;0.10;0.10;;;;;;;14.10;100.00;100566.41;5008168;28;20240;-83
2023/05/20 06:32:09;;;;;;;0.20;0.20;;;;;;;14.18;100.00;100565.50;4991469;28;20300;-83
2023/05/20 06:34:37;;;;;;;0.10;0.10;;;;;;;14.30;100.00;100562.81;4972443;28;20232;-83
2023/05/20 06:37:05;;;;;;;0.10;0.10;;;;;;;14.31;100.00;100570.81;4972982;28;20247;-84
2023/05/20 06:39:32;;;;;;;0.10;0.10;;;;;;;14.50;100.00;100566.31;5001511;28;20255;-84
2023/05/20 06:42:00;;;;;;;0.25;0.25;;;;;;;14.68;100.00;100578.66;5005106;28;20236;-83
2023/05/20 06:44:28;;;;;;;0.10;0.10;;;;;;;14.60;100.00;100556.50;4999877;28;20232;-84
2023/05/20 06:46:56;;;;;;;0.10;0.10;;;;;;;14.58;100.00;100552.97;4977841;28;20319;-82
2023/05/20 06:49:27;;;;;;;0.10;0.10;;;;;;;14.57;100.00;100541.44;4969490;28;20426;-83
2023/05/20 06:51:54;;;;;;;0.10;0.10;;;14.40;99.90;;;14.71;100.00;100544.03;5003189;28;20224;-83
2023/05/20 06:54:22;;;;;;;0.43;0.43;;;;;;;14.68;100.00;100533.41;5011290;28;20242;-83
2023/05/20 06:56:50;;;;;;;0.10;0.10;;;;;;;14.78;100.00;100535.09;5005258;28;20286;-84
2023/05/20 06:59:17;;;;;;;0.20;0.20;;;;;;;14.85;100.00;100525.28;5006830;28;20231;-82
2023/05/20 07:01:45;;;;;;;0.10;0.10;;;;;;;14.93;100.00;100537.66;5010572;28;20238;-82
2023/05/20 07:04:12;;;;;;;0.38;0.38;;;;;;;14.96;100.00;100532.31;4999316;28;20242;-83
2023/05/20 07:06:40;;;;;;;0.20;0.20;;;;;;;15.18;100.00;100538.34;4992133;28;20236;-84
2023/05/20 07:09:07;;;;;;;0.10;0.10;;;;;;;15.18;100.00;100516.16;4993433;28;20294;-84
2023/05/20 07:11:35;;;;;;;0.10;0.10;;;;;;;15.15;100.00;100505.53;4989616;28;20782;-83
2023/05/20 07:14:02;;;;;;;0.10;0.10;;;;;;;15.14;100.00;100496.66;4994627;28;20241;-82
2023/05/20 07:16:31;;;;;;;0.20;0.20;;;;;;;15.37;100.00;100507.09;4973261;28;20695;-83
2023/05/20 07:18:58;;;;;;;0.10;0.10;;;;;;;15.31;100.00;100491.19;5010293;28;20239;-83
2023/05/20 07:21:26;;;;;;;0.10;0.10;;;15.10;99.90;;;15.53;100.00;100490.06;4997811;28;20240;-83
2023/05/20 07:23:53;;;;;;;0.17;0.17;;;;;;;15.54;100.00;100490.94;5012227;28;20228;-83
2023/05/20 07:26:21;;;;;;;0.32;0.32;;;;;;;15.61;100.00;100482.06;5005628;28;20609;-84
2023/05/20 07:28:48;;;;;;;0.00;0.00;;;15.30;99.90;;;15.72;100.00;100485.50;5010723;28;20292;-83
2023/05/20 07:31:16;;;;;;;0.43;0.43;;;;;;;15.61;100.00;100460.72;4999318;28;20699;-82
2023/05/20 07:33:43;;;;;;;0.70;0.22;;;;;;;15.93;100.00;100457.69;4995336;28;20291;-82
2023/05/20 07:36:11;;;;;;;0.70;0.45;;;;;;;16.36;100.00;100470.47;4993226;28;20319;-82
2023/05/20 07:38:38;;;;;;;0.10;0.10;;;;;;;16.84;100.00;100458.19;4974278;28;20239;-83
2023/05/20 07:41:11;;;;;;;0.00;0.00;;;;;;;17.03;100.00;100432.97;4995051;28;20240;-83
2023/05/20 07:43:38;;;;;;;0.10;0.10;;;;;;;16.95;100.00;100395.69;5001474;28;20236;-81
2023/05/20 07:46:06;;;;;;;0.43;0.43;;;;;;;16.99;100.00;100380.50;5002502;28;20235;-83
2023/05/20 07:48:33;;;;;;;0.20;0.20;;;16.80;99.90;;;17.25;100.00;100386.22;5001907;28;20228;-85
2023/05/20 07:51:01;;;;;;;0.10;0.10;;;;;;;16.82;100.00;100342.47;5002445;28;20239;-83
2023/05/20 07:53:28;;;;;;;0.10;0.10;;;;;;;16.80;100.00;100339.84;4998441;28;20239;-83
2023/05/20 07:55:56;;;;;;;0.05;0.05;;;;;;;16.75;100.00;100335.50;5004872;28;20231;-83
2023/05/20 07:58:23;;;;;;;0.10;0.10;;;;;;;17.13;100.00;100342.84;4987275;28;20234;-83
2023/05/20 08:00:50;;;;;;;0.10;0.10;;;16.90;99.90;;;17.38;100.00;100352.13;4984098;28;20236;-83
2023/05/20 08:03:18;;;;;;;0.20;0.20;;;16.90;99.90;;;17.32;100.00;100328.19;5003335;28;20232;-84
2023/05/20 08:05:45;;;;;;;0.20;0.20;;;;;;;17.00;100.00;100286.09;4996161;28;20252;-84
2023/05/20 08:08:13;;;;;;;0.17;0.17;;;;;;;17.46;100.00;100290.47;4987414;28;20262;-84
2023/05/20 08:10:40;;;;;;;0.10;0.10;;;17.30;99.90;;;17.85;100.00;100278.94;4994008;28;20253;-84
2023/05/20 08:13:08;;;;;;;0.10;0.10;;;;;;;17.43;100.00;100234.41;4995278;28;20244;-84
2023/05/20 08:15:36;;;;;;;0.15;0.15;;;17.20;99.90;;;17.43;100.00;100229.94;4978208;28;20255;-86
2023/05/20 08:18:03;;;;;;;0.10;0.10;;;;;;;17.68;100.00;100238.31;4984752;28;20240;-85
2023/05/20 08:20:31;;;;;;;0.00;0.00;;;;;;;18.17;100.00;100270.13;4997688;28;20232;-86
2023/05/20 08:22:58;;;;;;;0.10;0.10;;;;;;;17.99;100.00;100237.59;4991008;28;20236;-85
2023/05/20 08:25:26;;;;;;;0.15;0.15;;;17.90;99.90;;;18.32;100.00;100226.06;5008248;28;20316;-85
2023/05/20 08:27:53;;;;;;;0.13;0.13;;;;;;;18.10;100.00;100193.59;4995086;28;20339;-85
2023/05/20 08:30:20;;;;;;;0.10;0.10;;;;;;;17.99;100.00;100176.94;5007275;28;20246;-85
2023/05/20 08:32:48;;;;;;;0.30;0.30;;;;;;;17.98;100.00;100156.44;5008816;28;20240;-85
2023/05/20 08:35:16;;;;;;;0.20;0.20;;;;;;;18.52;100.00;100198.75;5000759;28;20307;-86
2023/05/20 08:37:43;;;;;;;0.05;0.05;;;;;;;18.44;100.00;100147.22;5001745;28;20246;-85
2023/05/20 08:40:12;;;;;;;0.35;0.35;;;18.10;99.90;;;18.48;100.00;100157.81;4975726;28;20287;-85
2023/05/20 08:42:43;;;;;;;0.40;0.40;;;18.50;99.90;;;18.99;100.00;100199.25;4974677;28;20236;-85
2023/05/20 08:45:12;;;;;;;0.13;0.13;;;;;;;19.08;100.00;100173.06;4990801;28;20245;-85
2023/05/20 08:47:42;;;;;;;0.32;0.32;;;18.60;99.90;;;18.78;100.00;100131.97;4989440;28;20237;-85
2023/05/20 08:50:11;;;;;;;0.10;0.10;;;18.60;99.90;;;18.96;100.00;100156.47;4993958;28;20232;-85
2023/05/20 08:52:47;;;;;;;0.35;0.35;;;18.60;99.90;;;18.96;100.00;100125.19;4997146;28;20232;-84
2023/05/20 08:55:23;;;;;;;0.85;0.75;;;19.10;99.90;;;19.30;100.00;100111.63;5002286;28;20240;-80
2023/05/20 08:57:53;;;;;;;0.17;0.17;;;;;;;19.31;100.00;100112.50;4985025;28;20238;-82
2023/05/20 09:00:25;;;;;;;0.00;0.00;;;18.90;99.90;;;19.15;100.00;100055.81;4998528;28;20233;-81
2023/05/20 09:02:54;;;;;;;0.30;0.30;;;19.10;99.90;;;19.28;100.00;100037.53;4992721;28;20252;-81
2023/05/20 09:05:22;;;;;;;0.10;0.10;;;;;;;19.52;100.00;100060.00;4995920;28;20621;-81
2023/05/20 09:07:49;;;;;;;0.00;0.00;;;;;;;19.81;100.00;100041.13;4960876;28;20240;-83
2023/05/20 09:10:17;;;;;;;0.10;0.10;;;;;;;19.73;100.00;100013.69;4992577;28;20229;-85
2023/05/20 09:12:45;;;;;;;0.10;0.10;;;;;;;19.53;100.00;99973.28;4964933;28;20233;-83
2023/05/20 09:15:13;;;;;;;0.10;0.10;;;;;;;19.19;100.00;99943.09;5007529;28;20238;-82
2023/05/20 09:17:40;;;;;;;1.73;1.23;;;;;;;18.88;100.00;99914.69;4993978;28;20232;-81
2023/05/20 09:20:09;;;;;;;0.65;0.65;;;18.90;99.90;;;19.30;100.00;99965.97;4994653;28;20238;-82
2023/05/20 09:22:38;;;;;;;0.10;0.10;;;19.10;99.90;;;19.44;100.00;99943.09;4983789;28;20236;-85
2023/05/20 09:25:06;;;;;;;0.20;0.20;;;;;;;19.75;100.00;99951.00;4983913;28;20240;-85
2023/05/20 09:27:35;;;;;;;0.00;0.00;;;;;;;20.04;100.00;99983.94;4982552;28;20240;-86
2023/05/20 09:30:06;;;;;;;0.10;0.10;;;19.80;99.90;;;20.12;100.00;99972.00;4966534;28;20249;-88
2023/05/20 09:32:33;;;;;;;0.10;0.10;;;;;;;20.24;100.00;99946.50;5014075;23;20244;-82
2023/05/20 09:35:03;;;;;;;0.70;0.70;;;19.70;99.90;;;20.22;100.00;99918.81;4985155;28;20367;-85
2023/05/20 09:37:33;;;;;;;0.00;0.00;;;19.90;99.90;;;20.39;100.00;99921.75;4971915;28;20240;-83
2023/05/20 09:40:04;;;;;;;0.00;0.00;;;19.70;99.90;;;20.01;100.00;99849.88;4975641;28;20232;-81
2023/05/20 09:42:44;;;;;;;0.10;0.10;;;20.00;99.90;;;20.54;100.00;99908.66;5000618;28;20232;-80
2023/05/20 09:45:12;;;;;;;0.17;0.17;;;20.50;99.90;;;20.84;100.00;99909.25;4979243;28;20232;-81
2023/05/20 09:47:40;;;;;;;1.08;1.08;;;20.20;99.90;;;20.44;100.00;99841.88;4968702;28;20237;-80
2023/05/20 09:50:08;;;;;;;0.00;0.00;;;20.10;99.90;;;20.46;100.00;99836.44;4980957;28;20239;-79
2023/05/20 09:52:40;;;;;;;0.15;0.15;;;20.40;99.90;;;20.63;100.00;99882.31;4991167;28;20331;-78
2023/05/20 09:55:11;;;;;;;0.35;0.35;;;20.40;99.90;;;20.53;100.00;99861.25;4993187;28;20396;-80
2023/05/20 09:57:39;;;;;;;0.00;0.00;;;;;;;20.19;100.00;99808.88;4995858;28;20232;-79
2023/05/20 10:00:12;;;;;;;0.08;0.08;;;20.30;99.90;;;20.45;100.00;99832.00;4986095;28;20301;-81
2023/05/20 10:02:50;;;;;;;0.22;0.22;;;20.40;99.90;;;20.75;100.00;99862.97;4993950;28;20271;-79
2023/05/20 10:05:37;;;;;;;0.20;0.20;;;20.30;99.90;;;20.42;100.00;99853.63;4995540;28;20228;-77
2023/05/20 10:08:30;;;;;;;0.10;0.10;;;20.50;99.90;;;20.64;100.00;99833.00;4974882;28;20311;-78
2023/05/20 10:11:25;;;;;;;0.00;0.00;;;20.30;99.90;;;20.49;100.00;99796.03;4977492;28;20318;-79
2023/05/20 10:14:21;;;;;;;0.10;0.10;;;20.60;99.90;;;21.19;100.00;99849.50;4974762;28;20243;-78
2023/05/20 10:17:31;;;;;;;0.10;0.10;;;20.70;99.90;;;21.02;100.00;99774.94;4980893;28;20242;-81
2023/05/20 10:19:59;;;;;;;0.00;0.00;;;;;;;21.03;100.00;99768.63;4977087;28;20236;-81
2023/05/20 10:22:29;;;;;;;0.00;0.00;;;20.70;99.90;;;20.78;100.00;99723.13;5005890;28;20243;-82
2023/05/20 10:25:06;;;;;;;0.00;0.00;;;20.90;99.90;;;21.70;100.00;99788.91;4959879;28;20224;-81
2023/05/20 10:28:11;;;;;;;0.05;0.05;;;21.10;99.90;;;21.61;100.00;99751.69;4989054;28;20219;-81
2023/05/20 10:30:50;;;;;;;0.00;0.00;;;21.10;99.90;;;21.19;100.00;99693.53;5001834;28;20239;-81
2023/05/20 10:33:18;;;;;;;0.00;0.00;;;21.00;99.90;;;21.41;100.00;99701.50;4994782;28;20234;-81
2023/05/20 10:35:52;;;;;;;1.00;0.80;;;21.00;99.90;;;21.13;100.00;99664.25;4996785;28;20243;-81
2023/05/20 10:38:20;;;;;;;0.00;0.00;;;;;;;21.58;100.00;99727.63;4987133;28;20227;-79
2023/05/20 10:40:48;;;;;;;0.20;0.20;;;;;;;21.36;100.00;99664.06;4980909;28;20304;-80
2023/05/20 10:43:25;;;;;;;0.00;0.00;;;21.10;99.90;;;21.64;100.00;99697.72;4997277;28;20246;-78
2023/05/20 10:45:57;;;;;;;0.00;0.00;;;21.10;99.90;;;21.57;100.00;99685.50;4996544;28;20245;-81
2023/05/20 10:48:43;;;;;;;0.10;0.10;;;;;;;21.89;100.00;99694.72;5075252;27;20588;-82
2023/05/20 10:51:13;;;;;;;0.10;0.10;;;21.50;99.90;;;21.86;100.00;99638.34;5050756;28;20237;-80
2023/05/20 10:53:45;;;;;;;0.00;0.00;;;21.50;99.90;;;21.89;100.00;99668.66;5025657;28;20252;-81
2023/05/20 10:56:22;;;;;;;0.00;0.00;;;21.50;99.90;;;21.79;100.00;99618.06;5024285;28;20280;-82
2023/05/20 10:58:54;;;;;;;0.00;0.00;;;21.50;99.90;;;21.74;100.00;99577.94;5031182;28;20234;-81
2023/05/20 11:01:29;;;;;;;0.10;0.10;;;;;;;21.48;100.00;99521.84;5031276;28;20287;-82
2023/05/20 11:03:57;;;;;;;0.00;0.00;;;;;;;21.39;100.00;99518.69;5026632;28;20257;-81
2023/05/20 11:06:28;;;;;;;0.00;0.00;;;21.10;99.90;;;21.49;100.00;99499.38;5026351;28;20265;-82
2023/05/20 11:09:02;;;;;;;0.00;0.00;;;;;;;21.70;100.00;99509.94;5040287;28;20236;-82
2023/05/20 11:11:30;;;;;;;0.00;0.00;;;21.30;99.90;;;21.63;100.00;99527.34;5026222;28;20238;-81
2023/05/20 11:13:59;;;;;;;0.00;0.00;;;;;;;21.87;100.00;99530.59;5026156;28;20242;-83
2023/05/20 11:16:26;;;;;;;0.73;0.47;;;22.00;99.90;;;22.32;100.00;99531.88;5025760;28;20226;-81
2023/05/20 11:18:54;;;;;;;0.00;0.00;;;;;;;21.70;100.00;99390.66;5025177;28;20658;-82
2023/05/20 11:21:21;;;;;;;0.00;0.00;;;;;;;21.91;100.00;99461.31;5022290;28;20238;-82
2023/05/20 11:23:51;;;;;;;0.00;0.00;;;21.50;99.90;;;21.78;100.00;99418.03;5023344;28;20328;-81
2023/05/20 11:26:20;;;;;;;0.25;0.25;;;21.30;99.90;;;21.55;100.00;99421.94;5031930;28;20234;-83
2023/05/20 11:28:47;;;;;;;0.65;0.65;;;;;;;21.84;100.00;99459.91;5039976;28;20238;-83
2023/05/20 11:31:15;;;;;;;0.00;0.00;;;;;;;21.88;100.00;99464.19;5026840;28;20242;-82
2023/05/20 11:33:43;;;;;;;0.00;0.00;;;;;;;22.28;100.00;99474.63;5026154;28;20234;-84
2023/05/20 11:36:13;;;;;;;0.08;0.08;;;;;;;22.26;100.00;99452.28;5028715;28;20291;-84
2023/05/20 11:38:57;;;;;;;0.00;0.00;;;22.00;99.90;;;22.20;100.00;99466.09;5029836;28;20226;-79
2023/05/20 11:41:26;;;;;;;0.00;0.00;;;21.80;99.90;;;22.20;100.00;99423.00;5028606;28;20230;-80
2023/05/20 11:44:00;;;;;;;0.28;0.28;;;21.60;99.90;;;21.74;100.00;99341.13;5025351;28;20685;-80
2023/05/20 11:46:28;;;;;;;0.10;0.10;;;;;;;21.86;100.00;99371.88;5024080;28;20342;-80
2023/05/20 11:48:56;;;;;;;0.00;0.00;;;;;;;21.78;100.00;99345.38;5028060;28;20309;-80
2023/05/20 11:51:26;;;;;;;0.50;0.50;;;21.60;99.90;;;22.01;100.00;99374.59;5027259;28;20231;-83
2023/05/20 11:54:03;;;;;;;1.60;0.22;;;21.60;99.90;;;21.74;100.00;99316.91;5026931;28;20222;-82
2023/05/20 11:56:33;;;;;;;0.00;0.00;;;21.40;99.90;;;21.57;100.00;99298.09;5026134;28;20245;-83
2023/05/20 11:59:00;;;;;;;0.22;0.22;;;21.30;99.90;;;21.67;100.00;99310.97;4993775;28;20235;-82
2023/05/20 12:01:32;;;;;;;0.10;0.10;;;21.40;99.90;;;21.80;100.00;99302.22;5027413;28;20617;-83
2023/05/20 12:04:00;;;;;;;0.00;0.00;;;;;;;21.73;100.00;99275.66;5022186;28;20235;-83
2023/05/20 12:06:28;;;;;;;1.33;1.15;;;;;;;21.98;100.00;99282.38;5014122;28;20265;-82
2023/05/20 12:08:55;;;;;;;0.13;0.13;;;;;;;22.08;100.00;99288.16;5020399;28;20253;-83
2023/05/20 12:11:23;;;;;;;0.40;0.35;;;;;;;22.02;100.00;99279.47;5020093;28;20230;-83
2023/05/20 12:13:50;;;;;;;0.10;0.10;;;;;;;22.01;100.00;99279.50;5020506;28;20242;-82
2023/05/20 12:16:18;;;;;;;0.10;0.10;;;;;;;22.37;100.00;99327.78;5013905;28;20239;-84
2023/05/20 12:18:45;;;;;;;0.10;0.10;;;;;;;22.49;100.00;99327.09;5029006;28;20238;-83
2023/05/20 12:21:13;;;;;;;0.43;0.43;;;;;;;22.38;100.00;99328.66;5008946;28;20287;-83
2023/05/20 12:23:40;;;;;;;0.30;0.30;;;;;;;22.29;100.00;99309.38;5018328;28;20233;-82
2023/05/20 12:26:08;;;;;;;0.10;0.10;;;;;;;22.33;100.00;99307.38;5012782;28;20242;-83
2023/05/20 12:28:35;;;;;;;0.20;0.20;;;;;;;22.37;100.00;99308.94;5012382;28;20239;-83
2023/05/20 12:31:03;;;;;;;0.13;0.13;;;;;;;22.42;100.00;99285.31;5009159;28;20235;-82
2023/05/20 12:33:31;;;;;;;0.13;0.13;;;;;;;22.22;100.00;99254.13;5005610;28;20246;-83
2023/05/20 12:35:58;;;;;;;0.32;0.32;;;;;;;22.56;100.00;99277.28;5015981;28;20241;-84
2023/05/20 12:38:26;;;;;;;0.00;0.00;;;;;;;22.39;100.00;99234.31;5019956;28;20237;-82
2023/05/20 12:40:54;;;;;;;0.00;0.00;;;;;;;22.37;100.00;99224.56;5016920;28;20241;-83
2023/05/20 12:43:22;;;;;;;0.05;0.05;;;;;;;22.05;100.00;99165.34;5011992;28;20223;-83
2023/05/20 12:45:51;;;;;;;0.32;0.32;;;;;;;22.04;100.00;99183.31;5011398;28;20238;-83
2023/05/20 12:48:18;;;;;;;0.00;0.00;;;;;;;22.01;100.00;99202.31;5012283;28;20237;-83
2023/05/20 12:50:45;;;;;;;0.47;0.47;;;;;;;22.16;100.00;99191.69;5016617;28;20246;-83
2023/05/20 12:53:13;;;;;;;0.00;0.00;;;;;;;22.50;100.00;99233.66;5028199;28;20231;-80
2023/05/20 12:55:40;;;;;;;0.70;0.63;;;;;;;22.69;100.00;99196.59;5012593;28;20318;-81
2023/05/20 12:58:08;;;;;;;0.10;0.10;;;;;;;22.84;100.00;99244.22;5010962;28;20262;-81
2023/05/20 13:00:36;;;;;;;0.55;0.55;;;;;;;22.76;100.00;99227.59;5006402;28;20239;-82
2023/05/20 13:03:03;;;;;;;0.00;0.00;;;;;;;23.16;100.00;99261.13;5010539;28;20231;-81
2023/05/20 13:05:31;;;;;;;0.00;0.00;;;;;;;23.50;100.00;99218.59;5013016;28;20262;-81
2023/05/20 13:07:59;;;;;;;0.00;0.00;;;;;;;23.40;100.00;99179.63;5021419;28;20622;-81
2023/05/20 13:10:26;;;;;;;0.00;0.00;;;;;;;22.95;100.00;99096.16;5012021;28;20232;-81
2023/05/20 13:12:54;;;;;;;0.30;0.30;;;;;;;22.92;100.00;99099.03;5012447;28;20231;-81
2023/05/20 13:15:23;;;;;;;4.78;0.60;;;;;;;22.72;100.00;99071.56;5008584;28;20222;-80
2023/05/20 13:17:50;;;;;;;1.15;0.52;;;;;;;22.59;100.00;99023.84;5011642;28;20223;-80
2023/05/20 13:20:18;;;;;;;0.00;0.00;;;;;;;22.82;100.00;99083.53;5013610;28;20317;-79
2023/05/20 13:22:46;;;;;;;0.00;0.00;;;;;;;22.77;100.00;99058.66;5012137;28;20290;-80
2023/05/20 13:25:14;;;;;;;0.00;0.00;;;;;;;22.55;100.00;99070.78;5012725;28;20237;-81
2023/05/20 13:27:41;;;;;;;0.70;0.70;;;;;;;22.63;100.00;99076.56;5010691;28;20237;-81
2023/05/20 13:30:09;;;;;;;0.95;0.95;;;;;;;22.58;100.00;99048.19;5013238;28;20237;-81
2023/05/20 13:32:37;;;;;;;0.05;0.05;;;;;;;22.70;100.00;99081.56;5009581;28;20235;-80
2023/05/20 13:35:05;;;;;;;0.10;0.10;;;22.20;99.90;;;22.73;100.00;99092.16;5011332;28;20233;-80
2023/05/20 13:37:32;;;;;;;0.20;0.20;;;;;;;22.89;100.00;99090.28;5012817;28;20250;-79
2023/05/20 13:40:00;;;;;;;0.00;0.00;;;;;;;23.04;100.00;99081.22;5011292;28;20253;-80
2023/05/20 13:42:27;;;;;;;1.20;1.00;;;;;;;23.96;100.00;99153.56;5011539;28;20229;-81
2023/05/20 13:44:55;;;;;;;0.00;0.00;;;;;;;24.81;100.00;99216.25;5012197;28;20235;-81
2023/05/20 13:47:22;;;;;;;0.10;0.10;;;;;;;24.68;100.00;99080.16;5011953;28;20234;-80
2023/05/20 13:49:50;;;;;;;0.00;0.00;;;;;;;24.19;100.00;98989.00;5012267;28;20635;-80
2023/05/20 13:52:17;;;;;;;0.50;0.50;;;;;;;23.80;100.00;98964.75;5012324;28;20235;-80
2023/05/20 13:54:47;;;;;;;0.00;0.00;;;;;;;23.51;100.00;98929.78;5012977;28;20231;-82
2023/05/20 13:57:15;;;;;;;0.00;0.00;;;;;;;23.17;100.00;98914.97;5008900;28;20233;-81
2023/05/20 13:59:42;;;;;;;0.00;0.00;;;;;;;23.63;100.00;98970.44;5010578;28;20234;-80
2023/05/20 14:02:10;;;;;;;0.00;0.00;;;;;;;23.51;100.00;98935.19;5010813;28;20308;-80
2023/05/20 14:04:38;;;;;;;0.38;0.15;;;;;;;24.16;100.00;98997.31;5006967;28;20227;-80
2023/05/20 14:07:06;;;;;;;0.00;0.00;;;;;;;23.96;100.00;98937.56;5013919;28;20250;-80
2023/05/20 14:09:36;;;;;;;0.00;0.00;;;;;;;23.76;100.00;98858.84;5011729;28;20234;-81
2023/05/20 14:12:05;;;;;;;0.32;0.32;;;23.10;99.90;;;23.29;100.00;98814.34;5011979;28;20235;-80
2023/05/20 14:14:32;;;;;;;0.20;0.20;;;;;;;23.67;100.00;98804.63;5007470;28;20235;-81
2023/05/20 14:17:00;;;;;;;0.00;0.00;;;;;;;24.30;100.00;98847.81;5002162;28;20246;-81
2023/05/20 14:19:28;;;;;;;0.00;0.00;;;;;;;25.05;100.00;98918.03;5004990;28;20235;-82
2023/05/20 14:21:59;;;;;;;0.10;0.10;;;;;;;25.07;100.00;98854.75;5003809;28;20230;-80
2023/05/20 14:24:27;;;;;;;0.00;0.00;;;;;;;24.92;100.00;98815.31;5009946;28;20707;-78
2023/05/20 14:26:55;;;;;;;0.10;0.10;;;;;;;24.71;100.00;98833.13;5009161;28;20250;-80
2023/05/20 14:29:22;;;;;;;0.10;0.10;;;;;;;24.90;100.00;98809.16;5010256;28;20227;-80
2023/05/20 14:31:50;;;;;;;0.68;0.63;;;;;;;25.46;100.00;98852.69;5008856;28;20266;-80
2023/05/20 14:34:17;;;;;;;0.05;0.05;;;;;;;24.03;100.00;98653.50;5012131;28;20231;-81
2023/05/20 14:36:45;;;;;;;0.30;0.20;;;;;;;23.86;100.00;98678.19;5017853;28;20256;-81